sensor_id;sensor_type;location;lat;lon;timestamp;temperature;humidity
12907;DHT22;6521;50.498;8.474;2024-03-23T00:54:43;8.54;81.95
12907;DHT22;6521;50.498;8.474;2024-03-23T00:57:14;8.54;82.15
12907;DHT22;6521;50.498;8.474;2024-03-23T00:59:46;8.55;82.29
12907;DHT22;6521;50.498;8.474;2024-03-23T01:02:16;8.58;82.31
12907;DHT22;6521;50.498;8.474;2024-03-23T01:04:47;8.57;82.52
12907;DHT22;6521;50.498;8.474;2024-03-23T01:07:18;8.57;82.66
12907;DHT22;6521;50.498;8.474;2024-03-23T01:09:49;8.54;82.71
12907;DHT22;6521;50.498;8.474;2024-03-23T01:12:21;8.57;82.79
12907;DHT22;6521;50.498;8.474;2024-03-23T01:14:54;8.68;82.77
12907;DHT22;6521;50.498;8.474;2024-03-23T01:17:25;8.73;82.75
12907;DHT22;6521;50.498;8.474;2024-03-23T01:19:55;8.76;82.73
12907;DHT22;6521;50.498;8.474;2024-03-23T01:22:26;8.76;82.67
12907;DHT22;6521;50.498;8.474;2024-03-23T01:24:57;8.78;82.78
12907;DHT22;6521;50.498;8.474;2024-03-23T01:27:29;8.82;82.81
12907;DHT22;6521;50.498;8.474;2024-03-23T01:29:59;8.86;82.76
12907;DHT22;6521;50.498;8.474;2024-03-23T01:32:30;8.92;82.82
12907;DHT22;6521;50.498;8.474;2024-03-23T01:35:01;8.89;82.84
12907;DHT22;6521;50.498;8.474;2024-03-23T01:37:32;8.82;83.12
12907;DHT22;6521;50.498;8.474;2024-03-23T01:40:03;8.88;83.16
12907;DHT22;6521;50.498;8.474;2024-03-23T01:42:34;8.85;82.92
12907;DHT22;6521;50.498;8.474;2024-03-23T01:45:07;8.86;82.99
12907;DHT22;6521;50.498;8.474;2024-03-23T01:47:42;8.96;82.65
12907;DHT22;6521;50.498;8.474;2024-03-23T01:50:15;8.93;82.85
12907;DHT22;6521;50.498;8.474;2024-03-23T01:52:49;8.95;82.86
12907;DHT22;6521;50.498;8.474;2024-03-23T01:55:20;8.96;83.02
12907;DHT22;6521;50.498;8.474;2024-03-23T01:57:52;8.96;83.06
12907;DHT22;6521;50.498;8.474;2024-03-23T02:00:24;9.03;83.12
12907;DHT22;6521;50.498;8.474;2024-03-23T02:02:55;9.05;83.16
12907;DHT22;6521;50.498;8.474;2024-03-23T02:05:26;9.13;83.09
12907;DHT22;6521;50.498;8.474;2024-03-23T02:07:57;9.05;83.18
12907;DHT22;6521;50.498;8.474;2024-03-23T02:10:27;9.12;83.13
12907;DHT22;6521;50.498;8.474;2024-03-23T02:12:58;9.09;83.29
12907;DHT22;6521;50.498;8.474;2024-03-23T02:15:29;9.13;83.38
12907;DHT22;6521;50.498;8.474;2024-03-23T02:18:00;9.15;83.56
12907;DHT22;6521;50.498;8.474;2024-03-23T02:20:31;9.15;83.60
12907;DHT22;6521;50.498;8.474;2024-03-23T02:23:02;9.02;84.10
12907;DHT22;6521;50.498;8.474;2024-03-23T02:25:33;9.06;84.19
12907;DHT22;6521;50.498;8.474;2024-03-23T02:28:04;9.03;84.29
12907;DHT22;6521;50.498;8.474;2024-03-23T02:30:35;9.05;84.19
12907;DHT22;6521;50.498;8.474;2024-03-23T02:33:06;9.06;84.26
12907;DHT22;6521;50.498;8.474;2024-03-23T02:35:37;9.03;84.27
12907;DHT22;6521;50.498;8.474;2024-03-23T02:38:08;9.08;84.29
12907;DHT22;6521;50.498;8.474;2024-03-23T02:40:39;9.09;84.17
12907;DHT22;6521;50.498;8.474;2024-03-23T02:43:09;9.10;83.93
12907;DHT22;6521;50.498;8.474;2024-03-23T02:45:40;9.15;83.76
12907;DHT22;6521;50.498;8.474;2024-03-23T02:48:11;9.10;83.79
12907;DHT22;6521;50.498;8.474;2024-03-23T02:50:42;9.03;84.02
12907;DHT22;6521;50.498;8.474;2024-03-23T02:53:15;9.03;83.99
12907;DHT22;6521;50.498;8.474;2024-03-23T02:55:45;9.10;83.98
12907;DHT22;6521;50.498;8.474;2024-03-23T02:58:16;9.12;83.97
12907;DHT22;6521;50.498;8.474;2024-03-23T03:00:47;9.12;84.09
12907;DHT22;6521;50.498;8.474;2024-03-23T03:03:19;9.12;84.06
12907;DHT22;6521;50.498;8.474;2024-03-23T03:05:56;9.16;84.13
12907;DHT22;6521;50.498;8.474;2024-03-23T03:08:27;9.22;84.07
12907;DHT22;6521;50.498;8.474;2024-03-23T03:10:57;9.22;84.11
12907;DHT22;6521;50.498;8.474;2024-03-23T03:13:28;9.23;84.17
12907;DHT22;6521;50.498;8.474;2024-03-23T03:15:59;9.22;84.19
12907;DHT22;6521;50.498;8.474;2024-03-23T03:18:31;9.20;84.20
12907;DHT22;6521;50.498;8.474;2024-03-23T03:21:02;9.12;84.40
12907;DHT22;6521;50.498;8.474;2024-03-23T03:23:39;9.13;84.64
12907;DHT22;6521;50.498;8.474;2024-03-23T03:26:13;9.12;84.72
12907;DHT22;6521;50.498;8.474;2024-03-23T03:28:43;9.15;84.73
12907;DHT22;6521;50.498;8.474;2024-03-23T03:31:19;9.06;84.93
12907;DHT22;6521;50.498;8.474;2024-03-23T03:33:52;8.98;84.84
12907;DHT22;6521;50.498;8.474;2024-03-23T03:36:28;8.82;84.88
12907;DHT22;6521;50.498;8.474;2024-03-23T03:39:02;8.73;85.16
12907;DHT22;6521;50.498;8.474;2024-03-23T03:41:34;8.75;85.45
12907;DHT22;6521;50.498;8.474;2024-03-23T03:44:06;8.76;85.36
12907;DHT22;6521;50.498;8.474;2024-03-23T03:46:37;8.55;84.97
12907;DHT22;6521;50.498;8.474;2024-03-23T03:49:08;8.48;84.84
12907;DHT22;6521;50.498;8.474;2024-03-23T03:51:40;8.33;84.19
12907;DHT22;6521;50.498;8.474;2024-03-23T03:54:13;8.19;82.96
12907;DHT22;6521;50.498;8.474;2024-03-23T03:56:44;8.06;83.05
12907;DHT22;6521;50.498;8.474;2024-03-23T03:59:15;8.00;83.42
12907;DHT22;6521;50.498;8.474;2024-03-23T04:01:49;7.97;83.73
12907;DHT22;6521;50.498;8.474;2024-03-23T04:04:23;7.99;84.17
12907;DHT22;6521;50.498;8.474;2024-03-23T04:07:01;7.93;84.27
12907;DHT22;6521;50.498;8.474;2024-03-23T04:09:35;7.82;84.30
12907;DHT22;6521;50.498;8.474;2024-03-23T04:12:06;7.75;84.49
12907;DHT22;6521;50.498;8.474;2024-03-23T04:14:37;7.73;84.01
12907;DHT22;6521;50.498;8.474;2024-03-23T04:17:08;7.62;83.71
12907;DHT22;6521;50.498;8.474;2024-03-23T04:19:39;7.54;83.87
12907;DHT22;6521;50.498;8.474;2024-03-23T04:22:13;7.59;83.98
12907;DHT22;6521;50.498;8.474;2024-03-23T04:24:45;7.48;84.22
12907;DHT22;6521;50.498;8.474;2024-03-23T04:27:17;7.50;84.54
12907;DHT22;6521;50.498;8.474;2024-03-23T04:29:50;7.51;84.39
12907;DHT22;6521;50.498;8.474;2024-03-23T04:32:21;7.47;84.08
12907;DHT22;6521;50.498;8.474;2024-03-23T04:34:52;7.41;83.65
12907;DHT22;6521;50.498;8.474;2024-03-23T04:37:23;7.35;83.84
12907;DHT22;6521;50.498;8.474;2024-03-23T04:39:54;7.30;83.53
12907;DHT22;6521;50.498;8.474;2024-03-23T04:42:25;7.24;83.70
12907;DHT22;6521;50.498;8.474;2024-03-23T04:44:58;7.21;83.75
12907;DHT22;6521;50.498;8.474;2024-03-23T04:47:29;7.21;83.94
12907;DHT22;6521;50.498;8.474;2024-03-23T04:50:01;7.23;83.77
12907;DHT22;6521;50.498;8.474;2024-03-23T04:52:32;7.25;83.59
12907;DHT22;6521;50.498;8.474;2024-03-23T04:55:04;7.20;83.53
12907;DHT22;6521;50.498;8.474;2024-03-23T04:57:37;7.15;83.34
12907;DHT22;6521;50.498;8.474;2024-03-23T05:00:12;7.13;83.29
12907;DHT22;6521;50.498;8.474;2024-03-23T05:02:52;7.07;82.94
12907;DHT22;6521;50.498;8.474;2024-03-23T05:05:25;6.94;82.96
12907;DHT22;6521;50.498;8.474;2024-03-23T05:07:56;6.87;83.29
12907;DHT22;6521;50.498;8.474;2024-03-23T05:10:29;6.89;83.37
12907;DHT22;6521;50.498;8.474;2024-03-23T05:13:04;6.86;83.41
12907;DHT22;6521;50.498;8.474;2024-03-23T05:15:37;6.83;83.10
12907;DHT22;6521;50.498;8.474;2024-03-23T05:18:08;6.80;83.30
12907;DHT22;6521;50.498;8.474;2024-03-23T05:20:43;6.82;83.02
12907;DHT22;6521;50.498;8.474;2024-03-23T05:23:15;6.77;82.85
12907;DHT22;6521;50.498;8.474;2024-03-23T05:25:46;6.77;82.91
12907;DHT22;6521;50.498;8.474;2024-03-23T05:28:20;6.80;82.88
12907;DHT22;6521;50.498;8.474;2024-03-23T05:30:54;6.72;82.62
12907;DHT22;6521;50.498;8.474;2024-03-23T05:33:26;6.65;82.53
12907;DHT22;6521;50.498;8.474;2024-03-23T05:35:58;6.59;82.29
12907;DHT22;6521;50.498;8.474;2024-03-23T05:38:32;6.55;80.98
12907;DHT22;6521;50.498;8.474;2024-03-23T05:41:04;6.46;80.95
12907;DHT22;6521;50.498;8.474;2024-03-23T05:43:55;6.29;80.97
12907;DHT22;6521;50.498;8.474;2024-03-23T05:46:27;6.24;80.88
12907;DHT22;6521;50.498;8.474;2024-03-23T05:49:01;6.28;81.47
12907;DHT22;6521;50.498;8.474;2024-03-23T05:51:32;6.25;81.80
12907;DHT22;6521;50.498;8.474;2024-03-23T05:54:19;6.17;81.20
12907;DHT22;6521;50.498;8.474;2024-03-23T05:56:54;6.07;81.11
12907;DHT22;6521;50.498;8.474;2024-03-23T05:59:26;6.01;81.20
12907;DHT22;6521;50.498;8.474;2024-03-23T06:02:00;6.03;81.34
12907;DHT22;6521;50.498;8.474;2024-03-23T06:04:33;6.11;81.43
12907;DHT22;6521;50.498;8.474;2024-03-23T06:07:04;6.07;81.18
12907;DHT22;6521;50.498;8.474;2024-03-23T06:09:46;5.93;81.07
12907;DHT22;6521;50.498;8.474;2024-03-23T06:12:18;5.86;81.42
12907;DHT22;6521;50.498;8.474;2024-03-23T06:14:50;5.86;81.37
12907;DHT22;6521;50.498;8.474;2024-03-23T06:17:24;5.80;81.84
12907;DHT22;6521;50.498;8.474;2024-03-23T06:19:56;5.87;81.86
12907;DHT22;6521;50.498;8.474;2024-03-23T06:22:29;5.86;81.55
12907;DHT22;6521;50.498;8.474;2024-03-23T06:25:00;5.80;81.08
12907;DHT22;6521;50.498;8.474;2024-03-23T06:27:33;5.81;81.39
12907;DHT22;6521;50.498;8.474;2024-03-23T06:30:07;5.70;81.22
12907;DHT22;6521;50.498;8.474;2024-03-23T06:32:43;5.73;81.22
12907;DHT22;6521;50.498;8.474;2024-03-23T06:35:13;5.77;81.35
12907;DHT22;6521;50.498;8.474;2024-03-23T06:37:45;5.89;81.44
12907;DHT22;6521;50.498;8.474;2024-03-23T06:40:16;5.97;80.97
12907;DHT22;6521;50.498;8.474;2024-03-23T06:42:47;6.04;81.18
12907;DHT22;6521;50.498;8.474;2024-03-23T06:45:18;6.07;81.16
12907;DHT22;6521;50.498;8.474;2024-03-23T06:47:53;6.11;80.86
12907;DHT22;6521;50.498;8.474;2024-03-23T06:50:26;6.05;80.40
12907;DHT22;6521;50.498;8.474;2024-03-23T06:53:03;6.04;80.69
12907;DHT22;6521;50.498;8.474;2024-03-23T06:55:36;6.11;80.57
12907;DHT22;6521;50.498;8.474;2024-03-23T06:58:08;6.07;80.66
12907;DHT22;6521;50.498;8.474;2024-03-23T07:00:40;6.10;80.41
12907;DHT22;6521;50.498;8.474;2024-03-23T07:03:14;6.07;79.80
12907;DHT22;6521;50.498;8.474;2024-03-23T07:05:46;5.98;79.41
12907;DHT22;6521;50.498;8.474;2024-03-23T07:08:20;5.97;79.49
12907;DHT22;6521;50.498;8.474;2024-03-23T07:10:56;5.90;79.78
12907;DHT22;6521;50.498;8.474;2024-03-23T07:13:27;5.93;79.72
12907;DHT22;6521;50.498;8.474;2024-03-23T07:15:59;5.91;79.37
12907;DHT22;6521;50.498;8.474;2024-03-23T07:18:32;5.84;79.50
12907;DHT22;6521;50.498;8.474;2024-03-23T07:21:06;5.93;79.44
12907;DHT22;6521;50.498;8.474;2024-03-23T07:23:38;6.03;79.21
12907;DHT22;6521;50.498;8.474;2024-03-23T07:26:08;6.08;79.38
12907;DHT22;6521;50.498;8.474;2024-03-23T07:28:43;6.14;78.82
12907;DHT22;6521;50.498;8.474;2024-03-23T07:31:15;6.24;79.13
12907;DHT22;6521;50.498;8.474;2024-03-23T07:33:47;6.36;79.11
12907;DHT22;6521;50.498;8.474;2024-03-23T07:36:19;6.44;79.16
12907;DHT22;6521;50.498;8.474;2024-03-23T07:38:50;6.56;79.07
12907;DHT22;6521;50.498;8.474;2024-03-23T07:41:24;6.62;78.95
12907;DHT22;6521;50.498;8.474;2024-03-23T07:43:56;6.56;78.71
12907;DHT22;6521;50.498;8.474;2024-03-23T07:46:27;6.55;78.48
12907;DHT22;6521;50.498;8.474;2024-03-23T07:48:58;6.50;79.20
12907;DHT22;6521;50.498;8.474;2024-03-23T07:51:29;6.62;79.22
12907;DHT22;6521;50.498;8.474;2024-03-23T07:54:01;6.68;78.50
12907;DHT22;6521;50.498;8.474;2024-03-23T07:56:35;6.59;78.12
12907;DHT22;6521;50.498;8.474;2024-03-23T07:59:06;6.45;78.39
12907;DHT22;6521;50.498;8.474;2024-03-23T08:01:39;6.42;78.88
12907;DHT22;6521;50.498;8.474;2024-03-23T08:04:28;6.38;79.12
12907;DHT22;6521;50.498;8.474;2024-03-23T08:06:59;6.32;79.45
12907;DHT22;6521;50.498;8.474;2024-03-23T08:09:30;6.32;79.38
12907;DHT22;6521;50.498;8.474;2024-03-23T08:12:01;6.34;79.86
12907;DHT22;6521;50.498;8.474;2024-03-23T08:14:35;6.26;79.88
12907;DHT22;6521;50.498;8.474;2024-03-23T08:17:08;6.24;80.41
12907;DHT22;6521;50.498;8.474;2024-03-23T08:19:38;6.28;80.54
12907;DHT22;6521;50.498;8.474;2024-03-23T08:22:09;6.42;80.78
12907;DHT22;6521;50.498;8.474;2024-03-23T08:24:40;6.55;80.85
12907;DHT22;6521;50.498;8.474;2024-03-23T08:27:11;6.83;80.70
12907;DHT22;6521;50.498;8.474;2024-03-23T08:29:45;6.94;80.17
12907;DHT22;6521;50.498;8.474;2024-03-23T08:32:19;6.97;79.36
12907;DHT22;6521;50.498;8.474;2024-03-23T08:34:57;7.01;79.59
12907;DHT22;6521;50.498;8.474;2024-03-23T08:37:31;7.18;79.87
12907;DHT22;6521;50.498;8.474;2024-03-23T08:40:08;7.63;79.88
12907;DHT22;6521;50.498;8.474;2024-03-23T08:42:40;7.82;78.21
12907;DHT22;6521;50.498;8.474;2024-03-23T08:45:15;7.76;77.67
12907;DHT22;6521;50.498;8.474;2024-03-23T08:47:47;7.73;76.48
12907;DHT22;6521;50.498;8.474;2024-03-23T08:50:24;7.41;76.51
12907;DHT22;6521;50.498;8.474;2024-03-23T08:52:55;7.41;76.78
12907;DHT22;6521;50.498;8.474;2024-03-23T08:55:27;7.47;76.85
12907;DHT22;6521;50.498;8.474;2024-03-23T08:58:04;7.61;76.93
12907;DHT22;6521;50.498;8.474;2024-03-23T09:00:35;7.75;76.51
12907;DHT22;6521;50.498;8.474;2024-03-23T09:03:06;7.81;76.04
12907;DHT22;6521;50.498;8.474;2024-03-23T09:05:41;7.76;74.41
12907;DHT22;6521;50.498;8.474;2024-03-23T09:08:15;8.03;74.49
12907;DHT22;6521;50.498;8.474;2024-03-23T09:10:47;8.09;72.57
12907;DHT22;6521;50.498;8.474;2024-03-23T09:13:18;7.94;72.40
12907;DHT22;6521;50.498;8.474;2024-03-23T09:15:51;8.21;72.00
12907;DHT22;6521;50.498;8.474;2024-03-23T09:18:23;8.68;70.98
12907;DHT22;6521;50.498;8.474;2024-03-23T09:20:57;8.92;68.89
12907;DHT22;6521;50.498;8.474;2024-03-23T09:23:29;9.23;66.75
12907;DHT22;6521;50.498;8.474;2024-03-23T09:26:05;9.37;66.08
12907;DHT22;6521;50.498;8.474;2024-03-23T09:28:38;9.15;64.84
12907;DHT22;6521;50.498;8.474;2024-03-23T09:31:09;8.98;65.85
12907;DHT22;6521;50.498;8.474;2024-03-23T09:33:46;9.55;66.57
12907;DHT22;6521;50.498;8.474;2024-03-23T09:36:17;9.98;63.57
12907;DHT22;6521;50.498;8.474;2024-03-23T09:38:48;10.09;63.55
12907;DHT22;6521;50.498;8.474;2024-03-23T09:41:19;10.20;63.73
12907;DHT22;6521;50.498;8.474;2024-03-23T09:43:53;9.98;60.90
12907;DHT22;6521;50.498;8.474;2024-03-23T09:46:25;10.20;59.99
12907;DHT22;6521;50.498;8.474;2024-03-23T09:48:59;10.29;61.63
12907;DHT22;6521;50.498;8.474;2024-03-23T09:51:31;10.53;58.64
12907;DHT22;6521;50.498;8.474;2024-03-23T09:54:02;10.42;60.27
12907;DHT22;6521;50.498;8.474;2024-03-23T09:56:34;10.30;59.52
12907;DHT22;6521;50.498;8.474;2024-03-23T09:59:06;10.01;60.85
12907;DHT22;6521;50.498;8.474;2024-03-23T10:01:38;9.70;61.67
12907;DHT22;6521;50.498;8.474;2024-03-23T10:04:09;9.43;63.32
12907;DHT22;6521;50.498;8.474;2024-03-23T10:06:44;9.22;64.93
12907;DHT22;6521;50.498;8.474;2024-03-23T10:09:19;8.19;64.64
12907;DHT22;6521;50.498;8.474;2024-03-23T10:11:50;6.90;67.90
12907;DHT22;6521;50.498;8.474;2024-03-23T10:14:31;6.55;70.81
12907;DHT22;6521;50.498;8.474;2024-03-23T10:19:46;6.45;72.96
12907;DHT22;6521;50.498;8.474;2024-03-23T10:22:19;6.52;73.03
12907;DHT22;6521;50.498;8.474;2024-03-23T10:24:51;6.65;72.92
12907;DHT22;6521;50.498;8.474;2024-03-23T10:27:24;6.72;72.37
12907;DHT22;6521;50.498;8.474;2024-03-23T10:30:09;6.82;73.76
12907;DHT22;6521;50.498;8.474;2024-03-23T10:32:40;6.93;74.13
12907;DHT22;6521;50.498;8.474;2024-03-23T10:35:18;7.27;75.10
12907;DHT22;6521;50.498;8.474;2024-03-23T10:37:51;7.55;73.32
12907;DHT22;6521;50.498;8.474;2024-03-23T10:40:24;8.02;72.35
12907;DHT22;6521;50.498;8.474;2024-03-23T10:42:57;8.71;70.67
12907;DHT22;6521;50.498;8.474;2024-03-23T10:45:29;9.47;67.47
12907;DHT22;6521;50.498;8.474;2024-03-23T10:47:59;10.30;66.48
12907;DHT22;6521;50.498;8.474;2024-03-23T10:50:33;10.87;62.38
12907;DHT22;6521;50.498;8.474;2024-03-23T10:53:04;11.21;62.44
12907;DHT22;6521;50.498;8.474;2024-03-23T10:55:38;11.55;60.27
12907;DHT22;6521;50.498;8.474;2024-03-23T10:58:11;12.00;60.42
12907;DHT22;6521;50.498;8.474;2024-03-23T11:00:43;12.24;57.30
12907;DHT22;6521;50.498;8.474;2024-03-23T11:03:33;12.25;55.56
12907;DHT22;6521;50.498;8.474;2024-03-23T11:06:06;12.31;55.34
12907;DHT22;6521;50.498;8.474;2024-03-23T11:08:40;12.52;55.49
12907;DHT22;6521;50.498;8.474;2024-03-23T11:11:21;12.97;54.05
12907;DHT22;6521;50.498;8.474;2024-03-23T11:13:54;12.69;52.40
12907;DHT22;6521;50.498;8.474;2024-03-23T11:16:26;11.66;54.29
12907;DHT22;6521;50.498;8.474;2024-03-23T11:19:36;10.03;56.29
12907;DHT22;6521;50.498;8.474;2024-03-23T11:22:07;8.40;64.44
12907;DHT22;6521;50.498;8.474;2024-03-23T11:24:39;7.72;68.95
12907;DHT22;6521;50.498;8.474;2024-03-23T11:27:16;7.32;71.31
12907;DHT22;6521;50.498;8.474;2024-03-23T11:29:50;7.20;72.11
12907;DHT22;6521;50.498;8.474;2024-03-23T11:32:21;7.32;72.76
12907;DHT22;6521;50.498;8.474;2024-03-23T11:34:52;7.51;73.44
12907;DHT22;6521;50.498;8.474;2024-03-23T11:37:23;7.55;72.64
12907;DHT22;6521;50.498;8.474;2024-03-23T11:39:54;8.27;74.90
12907;DHT22;6521;50.498;8.474;2024-03-23T11:42:28;9.41;73.91
12907;DHT22;6521;50.498;8.474;2024-03-23T11:45:08;10.16;68.09
12907;DHT22;6521;50.498;8.474;2024-03-23T11:47:43;10.59;65.75
12907;DHT22;6521;50.498;8.474;2024-03-23T11:50:20;11.28;66.34
12907;DHT22;6521;50.498;8.474;2024-03-23T11:52:51;11.76;61.66
12907;DHT22;6521;50.498;8.474;2024-03-23T11:55:22;12.34;60.96
12907;DHT22;6521;50.498;8.474;2024-03-23T11:57:54;12.78;61.14
12907;DHT22;6521;50.498;8.474;2024-03-23T12:00:26;12.76;58.70
12907;DHT22;6521;50.498;8.474;2024-03-23T12:03:03;12.20;58.73
12907;DHT22;6521;50.498;8.474;2024-03-23T12:05:34;11.45;60.21
12907;DHT22;6521;50.498;8.474;2024-03-23T12:08:23;10.59;63.57
12907;DHT22;6521;50.498;8.474;2024-03-23T12:13:36;8.50;66.56
12907;DHT22;6521;50.498;8.474;2024-03-23T12:18:48;7.23;72.25
12907;DHT22;6521;50.498;8.474;2024-03-23T12:21:23;6.87;74.14
12907;DHT22;6521;50.498;8.474;2024-03-23T12:23:57;6.73;75.65
12907;DHT22;6521;50.498;8.474;2024-03-23T12:26:29;6.68;76.31
12907;DHT22;6521;50.498;8.474;2024-03-23T12:29:00;6.79;76.19
12907;DHT22;6521;50.498;8.474;2024-03-23T12:31:31;6.99;76.62
12907;DHT22;6521;50.498;8.474;2024-03-23T12:34:02;7.13;76.74
12907;DHT22;6521;50.498;8.474;2024-03-23T12:36:34;7.23;76.57
12907;DHT22;6521;50.498;8.474;2024-03-23T12:39:05;7.25;76.15
12907;DHT22;6521;50.498;8.474;2024-03-23T12:41:35;7.20;76.22
12907;DHT22;6521;50.498;8.474;2024-03-23T12:44:16;7.11;76.10
12907;DHT22;6521;50.498;8.474;2024-03-23T12:46:49;7.21;75.70
12907;DHT22;6521;50.498;8.474;2024-03-23T12:49:20;7.79;77.00
12907;DHT22;6521;50.498;8.474;2024-03-23T12:51:55;8.61;75.49
12907;DHT22;6521;50.498;8.474;2024-03-23T12:54:27;9.31;72.50
12907;DHT22;6521;50.498;8.474;2024-03-23T12:57:01;10.06;72.04
12907;DHT22;6521;50.498;8.474;2024-03-23T12:59:34;10.26;67.39
12907;DHT22;6521;50.498;8.474;2024-03-23T13:02:07;9.94;68.46
12907;DHT22;6521;50.498;8.474;2024-03-23T13:04:39;9.43;69.48
12907;DHT22;6521;50.498;8.474;2024-03-23T13:07:09;8.88;69.49
12907;DHT22;6521;50.498;8.474;2024-03-23T13:09:40;8.50;68.02
12907;DHT22;6521;50.498;8.474;2024-03-23T13:12:13;8.06;68.53
12907;DHT22;6521;50.498;8.474;2024-03-23T13:14:45;7.54;69.09
12907;DHT22;6521;50.498;8.474;2024-03-23T13:17:16;7.18;70.27
12907;DHT22;6521;50.498;8.474;2024-03-23T13:19:47;6.99;71.69
12907;DHT22;6521;50.498;8.474;2024-03-23T13:22:18;6.90;73.05
12907;DHT22;6521;50.498;8.474;2024-03-23T13:24:50;6.89;72.12
12907;DHT22;6521;50.498;8.474;2024-03-23T13:27:21;6.89;73.70
12907;DHT22;6521;50.498;8.474;2024-03-23T13:29:53;7.10;73.94
12907;DHT22;6521;50.498;8.474;2024-03-23T13:32:25;7.72;74.96
12907;DHT22;6521;50.498;8.474;2024-03-23T13:34:56;8.19;70.90
12907;DHT22;6521;50.498;8.474;2024-03-23T13:37:29;8.64;70.58
12907;DHT22;6521;50.498;8.474;2024-03-23T13:39:59;8.54;67.78
12907;DHT22;6521;50.498;8.474;2024-03-23T13:42:32;8.57;67.26
12907;DHT22;6521;50.498;8.474;2024-03-23T13:45:04;9.16;66.54
12907;DHT22;6521;50.498;8.474;2024-03-23T13:47:37;9.82;67.21
12907;DHT22;6521;50.498;8.474;2024-03-23T13:50:10;10.12;65.29
12907;DHT22;6521;50.498;8.474;2024-03-23T13:52:41;10.50;64.08
12907;DHT22;6521;50.498;8.474;2024-03-23T13:55:14;10.57;62.38
12907;DHT22;6521;50.498;8.474;2024-03-23T13:57:48;10.77;62.33
12907;DHT22;6521;50.498;8.474;2024-03-23T14:00:21;10.61;61.43
12907;DHT22;6521;50.498;8.474;2024-03-23T14:02:52;10.23;63.44
12907;DHT22;6521;50.498;8.474;2024-03-23T14:05:23;9.77;63.75
12907;DHT22;6521;50.498;8.474;2024-03-23T14:07:56;9.39;64.78
12907;DHT22;6521;50.498;8.474;2024-03-23T14:10:27;9.02;66.51
12907;DHT22;6521;50.498;8.474;2024-03-23T14:13:04;8.64;68.33
12907;DHT22;6521;50.498;8.474;2024-03-23T14:15:36;8.44;69.18
12907;DHT22;6521;50.498;8.474;2024-03-23T14:18:09;8.40;70.56
12907;DHT22;6521;50.498;8.474;2024-03-23T14:20:41;8.52;70.59
12907;DHT22;6521;50.498;8.474;2024-03-23T14:23:14;8.27;69.61
12907;DHT22;6521;50.498;8.474;2024-03-23T14:25:47;7.92;70.33
12907;DHT22;6521;50.498;8.474;2024-03-23T14:28:18;8.00;70.77
12907;DHT22;6521;50.498;8.474;2024-03-23T14:30:54;8.51;68.59
12907;DHT22;6521;50.498;8.474;2024-03-23T14:33:27;9.02;67.34
12907;DHT22;6521;50.498;8.474;2024-03-23T14:35:58;9.34;65.82
12907;DHT22;6521;50.498;8.474;2024-03-23T14:38:32;9.80;63.75
12907;DHT22;6521;50.498;8.474;2024-03-23T14:41:03;9.98;63.17
12907;DHT22;6521;50.498;8.474;2024-03-23T14:43:36;10.19;63.32
12907;DHT22;6521;50.498;8.474;2024-03-23T14:46:14;10.36;61.16
12907;DHT22;6521;50.498;8.474;2024-03-23T14:48:46;10.40;61.37
12907;DHT22;6521;50.498;8.474;2024-03-23T14:51:17;10.67;61.97
12907;DHT22;6521;50.498;8.474;2024-03-23T14:53:49;10.87;60.17
12907;DHT22;6521;50.498;8.474;2024-03-23T14:56:21;10.73;60.14
12907;DHT22;6521;50.498;8.474;2024-03-23T14:58:54;10.53;61.43
12907;DHT22;6521;50.498;8.474;2024-03-23T15:01:28;10.43;62.71
12907;DHT22;6521;50.498;8.474;2024-03-23T15:04:07;10.23;62.76
12907;DHT22;6521;50.498;8.474;2024-03-23T15:06:38;9.71;63.92
12907;DHT22;6521;50.498;8.474;2024-03-23T15:09:10;9.36;64.96
12907;DHT22;6521;50.498;8.474;2024-03-23T15:11:44;9.13;65.25
12907;DHT22;6521;50.498;8.474;2024-03-23T15:14:15;8.96;66.05
12907;DHT22;6521;50.498;8.474;2024-03-23T15:16:46;8.67;66.99
12907;DHT22;6521;50.498;8.474;2024-03-23T15:19:19;8.42;67.95
12907;DHT22;6521;50.498;8.474;2024-03-23T15:21:51;8.33;68.08
12907;DHT22;6521;50.498;8.474;2024-03-23T15:24:22;8.20;68.77
12907;DHT22;6521;50.498;8.474;2024-03-23T15:26:53;8.07;69.02
12907;DHT22;6521;50.498;8.474;2024-03-23T15:29:24;8.00;69.41
12907;DHT22;6521;50.498;8.474;2024-03-23T15:31:56;7.86;70.09
12907;DHT22;6521;50.498;8.474;2024-03-23T15:34:28;7.66;70.30
12907;DHT22;6521;50.498;8.474;2024-03-23T15:37:07;7.59;71.75
12907;DHT22;6521;50.498;8.474;2024-03-23T15:39:38;7.47;72.14
12907;DHT22;6521;50.498;8.474;2024-03-23T15:42:09;7.48;72.81
12907;DHT22;6521;50.498;8.474;2024-03-23T15:44:41;7.48;72.90
12907;DHT22;6521;50.498;8.474;2024-03-23T15:47:12;7.47;73.33
12907;DHT22;6521;50.498;8.474;2024-03-23T15:49:44;7.55;73.06
12907;DHT22;6521;50.498;8.474;2024-03-23T15:52:15;7.56;72.88
12907;DHT22;6521;50.498;8.474;2024-03-23T15:54:46;7.66;73.26
12907;DHT22;6521;50.498;8.474;2024-03-23T15:57:17;7.61;73.52
12907;DHT22;6521;50.498;8.474;2024-03-23T15:59:48;7.54;73.62
12907;DHT22;6521;50.498;8.474;2024-03-23T16:02:22;7.32;71.83
12907;DHT22;6521;50.498;8.474;2024-03-23T16:04:56;7.11;72.48
12907;DHT22;6521;50.498;8.474;2024-03-23T16:07:29;7.08;72.83
12907;DHT22;6521;50.498;8.474;2024-03-23T16:10:03;7.07;72.86
12907;DHT22;6521;50.498;8.474;2024-03-23T16:12:39;6.99;73.16
12907;DHT22;6521;50.498;8.474;2024-03-23T16:15:11;6.97;73.59
12907;DHT22;6521;50.498;8.474;2024-03-23T16:17:44;6.94;73.85
12907;DHT22;6521;50.498;8.474;2024-03-23T16:20:15;6.17;71.71
12907;DHT22;6521;50.498;8.474;2024-03-23T16:22:54;5.46;73.92
12907;DHT22;6521;50.498;8.474;2024-03-23T16:25:24;5.01;75.82
12907;DHT22;6521;50.498;8.474;2024-03-23T16:27:55;4.78;77.40
12907;DHT22;6521;50.498;8.474;2024-03-23T16:30:26;4.80;78.24
12907;DHT22;6521;50.498;8.474;2024-03-23T16:32:58;4.84;78.47
12907;DHT22;6521;50.498;8.474;2024-03-23T16:35:30;4.92;78.82
12907;DHT22;6521;50.498;8.474;2024-03-23T16:38:01;5.05;79.39
12907;DHT22;6521;50.498;8.474;2024-03-23T16:40:32;5.01;79.78
12907;DHT22;6521;50.498;8.474;2024-03-23T16:43:04;5.02;79.96
12907;DHT22;6521;50.498;8.474;2024-03-23T16:45:35;5.04;80.15
12907;DHT22;6521;50.498;8.474;2024-03-23T16:48:08;5.09;79.96
12907;DHT22;6521;50.498;8.474;2024-03-23T16:50:39;5.11;79.96
12907;DHT22;6521;50.498;8.474;2024-03-23T16:53:11;5.11;80.09
12907;DHT22;6521;50.498;8.474;2024-03-23T16:55:42;5.18;80.13
12907;DHT22;6521;50.498;8.474;2024-03-23T16:58:15;5.22;80.41
12907;DHT22;6521;50.498;8.474;2024-03-23T17:00:45;5.22;80.62
12907;DHT22;6521;50.498;8.474;2024-03-23T17:03:19;5.24;80.36
12907;DHT22;6521;50.498;8.474;2024-03-23T17:05:51;5.26;80.49
12907;DHT22;6521;50.498;8.474;2024-03-23T17:08:22;5.28;80.69
12907;DHT22;6521;50.498;8.474;2024-03-23T17:11:04;5.32;80.82
12907;DHT22;6521;50.498;8.474;2024-03-23T17:13:38;5.35;80.66
12907;DHT22;6521;50.498;8.474;2024-03-23T17:16:09;5.32;80.47
12907;DHT22;6521;50.498;8.474;2024-03-23T17:18:44;5.29;80.70
12907;DHT22;6521;50.498;8.474;2024-03-23T17:21:15;5.29;80.56
12907;DHT22;6521;50.498;8.474;2024-03-23T17:23:46;5.29;80.50
12907;DHT22;6521;50.498;8.474;2024-03-23T17:26:19;5.26;80.39
12907;DHT22;6521;50.498;8.474;2024-03-23T17:28:50;5.15;79.93
12907;DHT22;6521;50.498;8.474;2024-03-23T17:31:22;5.14;80.01
12907;DHT22;6521;50.498;8.474;2024-03-23T17:33:53;5.09;80.57
12907;DHT22;6521;50.498;8.474;2024-03-23T17:36:24;5.02;80.03